sensor_id;sensor_type;location;lat;lon;timestamp;temperature;humidity
48912;DHT22;34722;52.108;5.044;2022-07-06T00:01:41;12.30;99.90
48912;DHT22;34722;52.108;5.044;2022-07-06T00:04:06;12.20;99.90
48912;DHT22;34722;52.108;5.044;2022-07-06T00:06:32;12.10;99.90
48912;DHT22;34722;52.108;5.044;2022-07-06T00:08:58;12.10;99.90
48912;DHT22;34722;52.108;5.044;2022-07-06T00:11:24;12.10;99.90
48912;DHT22;34722;52.108;5.044;2022-07-06T00:13:50;12.10;99.90
48912;DHT22;34722;52.108;5.044;2022-07-06T00:16:17;12.10;99.90
48912;DHT22;34722;52.108;5.044;2022-07-06T00:18:43;12.10;99.90
48912;DHT22;34722;52.108;5.044;2022-07-06T00:21:08;12.00;99.90
48912;DHT22;34722;52.108;5.044;2022-07-06T00:23:34;12.00;99.90
48912;DHT22;34722;52.108;5.044;2022-07-06T00:25:59;12.00;99.90
48912;DHT22;34722;52.108;5.044;2022-07-06T00:28:25;12.00;99.90
48912;DHT22;34722;52.108;5.044;2022-07-06T00:30:52;12.00;99.90
48912;DHT22;34722;52.108;5.044;2022-07-06T00:33:18;12.00;99.90
48912;DHT22;34722;52.108;5.044;2022-07-06T00:35:48;11.90;99.90
48912;DHT22;34722;52.108;5.044;2022-07-06T00:38:14;11.90;99.90
48912;DHT22;34722;52.108;5.044;2022-07-06T00:40:43;11.90;99.90
48912;DHT22;34722;52.108;5.044;2022-07-06T00:43:12;11.80;99.90
48912;DHT22;34722;52.108;5.044;2022-07-06T00:45:40;11.90;99.90
48912;DHT22;34722;52.108;5.044;2022-07-06T00:48:07;11.80;99.90
48912;DHT22;34722;52.108;5.044;2022-07-06T00:50:33;11.70;99.90
48912;DHT22;34722;52.108;5.044;2022-07-06T00:53:01;11.70;99.90
48912;DHT22;34722;52.108;5.044;2022-07-06T00:55:30;11.70;99.90
48912;DHT22;34722;52.108;5.044;2022-07-06T00:57:57;11.80;99.90
48912;DHT22;34722;52.108;5.044;2022-07-06T01:00:25;11.70;99.90
48912;DHT22;34722;52.108;5.044;2022-07-06T01:02:52;11.70;99.90
48912;DHT22;34722;52.108;5.044;2022-07-06T01:05:19;11.70;99.90
48912;DHT22;34722;52.108;5.044;2022-07-06T01:10:49;11.50;99.90
48912;DHT22;34722;52.108;5.044;2022-07-06T01:15:59;11.50;99.90
48912;DHT22;34722;52.108;5.044;2022-07-06T01:18:25;11.50;99.90
48912;DHT22;34722;52.108;5.044;2022-07-06T01:21:30;11.50;99.90
48912;DHT22;34722;52.108;5.044;2022-07-06T01:24:01;11.50;99.90
48912;DHT22;34722;52.108;5.044;2022-07-06T01:26:27;11.50;99.90
48912;DHT22;34722;52.108;5.044;2022-07-06T01:28:53;11.50;99.90
48912;DHT22;34722;52.108;5.044;2022-07-06T01:31:25;11.50;99.90
48912;DHT22;34722;52.108;5.044;2022-07-06T01:33:53;11.60;99.90
48912;DHT22;34722;52.108;5.044;2022-07-06T01:36:19;11.60;99.90
48912;DHT22;34722;52.108;5.044;2022-07-06T01:38:54;11.70;99.90
48912;DHT22;34722;52.108;5.044;2022-07-06T01:41:21;11.70;99.90
48912;DHT22;34722;52.108;5.044;2022-07-06T01:43:49;11.70;99.90
48912;DHT22;34722;52.108;5.044;2022-07-06T01:46:15;11.70;99.90
48912;DHT22;34722;52.108;5.044;2022-07-06T01:48:41;11.60;99.90
48912;DHT22;34722;52.108;5.044;2022-07-06T01:51:07;11.60;99.90
48912;DHT22;34722;52.108;5.044;2022-07-06T01:53:33;11.60;99.90
48912;DHT22;34722;52.108;5.044;2022-07-06T01:55:58;11.50;99.90
48912;DHT22;34722;52.108;5.044;2022-07-06T01:58:24;11.50;99.90
48912;DHT22;34722;52.108;5.044;2022-07-06T02:00:50;11.50;99.90
48912;DHT22;34722;52.108;5.044;2022-07-06T02:03:16;11.60;99.90
48912;DHT22;34722;52.108;5.044;2022-07-06T02:05:48;11.60;99.90
48912;DHT22;34722;52.108;5.044;2022-07-06T02:08:14;11.50;99.90
48912;DHT22;34722;52.108;5.044;2022-07-06T02:10:40;11.60;99.90
48912;DHT22;34722;52.108;5.044;2022-07-06T02:13:06;11.50;99.90
48912;DHT22;34722;52.108;5.044;2022-07-06T02:15:32;11.50;99.90
48912;DHT22;34722;52.108;5.044;2022-07-06T02:17:57;11.40;99.90
48912;DHT22;34722;52.108;5.044;2022-07-06T02:20:23;11.40;99.90
48912;DHT22;34722;52.108;5.044;2022-07-06T02:22:50;11.40;99.90
48912;DHT22;34722;52.108;5.044;2022-07-06T02:25:16;11.40;99.90
48912;DHT22;34722;52.108;5.044;2022-07-06T02:27:44;11.40;99.90
48912;DHT22;34722;52.108;5.044;2022-07-06T02:30:13;11.40;99.90
48912;DHT22;34722;52.108;5.044;2022-07-06T02:32:38;11.40;99.90
48912;DHT22;34722;52.108;5.044;2022-07-06T02:35:04;11.40;99.90
48912;DHT22;34722;52.108;5.044;2022-07-06T02:37:31;11.50;99.90
48912;DHT22;34722;52.108;5.044;2022-07-06T02:39:57;11.60;99.90
48912;DHT22;34722;52.108;5.044;2022-07-06T02:42:23;11.60;99.90
48912;DHT22;34722;52.108;5.044;2022-07-06T02:44:49;11.70;99.90
48912;DHT22;34722;52.108;5.044;2022-07-06T02:47:15;11.80;99.90
48912;DHT22;34722;52.108;5.044;2022-07-06T02:49:41;11.90;99.90
48912;DHT22;34722;52.108;5.044;2022-07-06T02:52:07;11.90;99.90
48912;DHT22;34722;52.108;5.044;2022-07-06T02:54:32;12.00;99.90
48912;DHT22;34722;52.108;5.044;2022-07-06T02:56:58;12.20;99.90
48912;DHT22;34722;52.108;5.044;2022-07-06T02:59:26;12.20;99.90
48912;DHT22;34722;52.108;5.044;2022-07-06T03:01:53;12.40;99.90
48912;DHT22;34722;52.108;5.044;2022-07-06T03:04:18;12.50;99.90
48912;DHT22;34722;52.108;5.044;2022-07-06T03:06:44;12.50;99.90
48912;DHT22;34722;52.108;5.044;2022-07-06T03:09:13;12.60;99.90
48912;DHT22;34722;52.108;5.044;2022-07-06T03:11:39;12.60;99.90
48912;DHT22;34722;52.108;5.044;2022-07-06T03:14:05;12.70;99.90
48912;DHT22;34722;52.108;5.044;2022-07-06T03:16:32;12.80;99.90
48912;DHT22;34722;52.108;5.044;2022-07-06T03:18:58;12.90;99.90
48912;DHT22;34722;52.108;5.044;2022-07-06T03:21:26;13.00;99.90
48912;DHT22;34722;52.108;5.044;2022-07-06T03:23:52;13.00;99.90
48912;DHT22;34722;52.108;5.044;2022-07-06T03:26:18;13.00;99.90
48912;DHT22;34722;52.108;5.044;2022-07-06T03:28:44;13.00;99.90
48912;DHT22;34722;52.108;5.044;2022-07-06T03:31:13;12.90;99.90
48912;DHT22;34722;52.108;5.044;2022-07-06T03:33:39;12.90;99.90
48912;DHT22;34722;52.108;5.044;2022-07-06T03:36:05;12.80;99.90
48912;DHT22;34722;52.108;5.044;2022-07-06T03:38:31;12.80;99.90
48912;DHT22;34722;52.108;5.044;2022-07-06T03:41:00;12.80;99.90
48912;DHT22;34722;52.108;5.044;2022-07-06T03:43:25;12.80;99.90
48912;DHT22;34722;52.108;5.044;2022-07-06T03:45:53;12.80;99.90
48912;DHT22;34722;52.108;5.044;2022-07-06T03:48:19;12.80;99.90
48912;DHT22;34722;52.108;5.044;2022-07-06T03:50:45;12.80;99.90
48912;DHT22;34722;52.108;5.044;2022-07-06T03:53:14;12.80;99.90
48912;DHT22;34722;52.108;5.044;2022-07-06T03:55:40;12.80;99.90
48912;DHT22;34722;52.108;5.044;2022-07-06T03:58:05;12.80;99.90
48912;DHT22;34722;52.108;5.044;2022-07-06T04:00:31;12.90;99.90
48912;DHT22;34722;52.108;5.044;2022-07-06T04:02:57;13.00;99.90
48912;DHT22;34722;52.108;5.044;2022-07-06T04:05:23;13.10;99.90
48912;DHT22;34722;52.108;5.044;2022-07-06T04:07:49;13.20;99.90
48912;DHT22;34722;52.108;5.044;2022-07-06T04:10:16;13.30;99.90
48912;DHT22;34722;52.108;5.044;2022-07-06T04:12:43;13.40;99.90
48912;DHT22;34722;52.108;5.044;2022-07-06T04:15:12;13.50;99.90
48912;DHT22;34722;52.108;5.044;2022-07-06T04:17:38;13.50;99.90
48912;DHT22;34722;52.108;5.044;2022-07-06T04:20:24;13.60;99.90
48912;DHT22;34722;52.108;5.044;2022-07-06T04:22:51;13.70;99.90
48912;DHT22;34722;52.108;5.044;2022-07-06T04:25:18;13.70;99.90
48912;DHT22;34722;52.108;5.044;2022-07-06T04:27:44;13.80;99.90
48912;DHT22;34722;52.108;5.044;2022-07-06T04:30:13;13.80;99.90
48912;DHT22;34722;52.108;5.044;2022-07-06T04:32:39;13.90;96.80
48912;DHT22;34722;52.108;5.044;2022-07-06T04:35:06;14.00;99.10
48912;DHT22;34722;52.108;5.044;2022-07-06T04:37:32;14.10;97.70
48912;DHT22;34722;52.108;5.044;2022-07-06T04:39:57;14.20;96.90
48912;DHT22;34722;52.108;5.044;2022-07-06T04:42:24;14.20;94.60
48912;DHT22;34722;52.108;5.044;2022-07-06T04:44:50;14.30;92.00
48912;DHT22;34722;52.108;5.044;2022-07-06T04:47:17;14.50;84.90
48912;DHT22;34722;52.108;5.044;2022-07-06T04:49:44;14.50;76.10
48912;DHT22;34722;52.108;5.044;2022-07-06T04:52:13;14.70;76.20
48912;DHT22;34722;52.108;5.044;2022-07-06T04:54:39;14.70;59.10
48912;DHT22;34722;52.108;5.044;2022-07-06T04:57:05;14.80;57.70
48912;DHT22;34722;52.108;5.044;2022-07-06T04:59:31;14.80;50.80
48912;DHT22;34722;52.108;5.044;2022-07-06T05:01:58;14.90;53.40
48912;DHT22;34722;52.108;5.044;2022-07-06T05:04:24;14.90;44.20
48912;DHT22;34722;52.108;5.044;2022-07-06T05:06:51;14.90;39.50
48912;DHT22;34722;52.108;5.044;2022-07-06T05:09:20;15.00;43.40
48912;DHT22;34722;52.108;5.044;2022-07-06T05:11:46;15.00;46.70
48912;DHT22;34722;52.108;5.044;2022-07-06T05:14:15;15.10;40.90
48912;DHT22;34722;52.108;5.044;2022-07-06T05:16:42;15.30;40.50
48912;DHT22;34722;52.108;5.044;2022-07-06T05:19:15;15.40;33.30
48912;DHT22;34722;52.108;5.044;2022-07-06T05:21:44;15.60;26.80
48912;DHT22;34722;52.108;5.044;2022-07-06T05:24:12;15.80;22.60
48912;DHT22;34722;52.108;5.044;2022-07-06T05:26:39;15.90;8.90
48912;DHT22;34722;52.108;5.044;2022-07-06T05:29:06;16.00;1.00
48912;DHT22;34722;52.108;5.044;2022-07-06T05:31:38;16.10;1.00
48912;DHT22;34722;52.108;5.044;2022-07-06T05:34:06;16.10;1.00
48912;DHT22;34722;52.108;5.044;2022-07-06T05:36:32;16.10;1.00
48912;DHT22;34722;52.108;5.044;2022-07-06T05:38:59;16.20;1.60
48912;DHT22;34722;52.108;5.044;2022-07-06T05:41:25;16.30;1.00
48912;DHT22;34722;52.108;5.044;2022-07-06T05:43:51;16.90;1.00
48912;DHT22;34722;52.108;5.044;2022-07-06T05:46:17;17.60;1.00
48912;DHT22;34722;52.108;5.044;2022-07-06T05:48:43;18.00;1.00
48912;DHT22;34722;52.108;5.044;2022-07-06T05:51:29;19.10;65.90
48912;DHT22;34722;52.108;5.044;2022-07-06T05:53:55;20.40;37.20
48912;DHT22;34722;52.108;5.044;2022-07-06T05:56:21;21.10;99.90
48912;DHT22;34722;52.108;5.044;2022-07-06T05:58:47;21.30;99.90
48912;DHT22;34722;52.108;5.044;2022-07-06T06:01:13;21.50;99.90
48912;DHT22;34722;52.108;5.044;2022-07-06T06:03:42;21.40;99.90
48912;DHT22;34722;52.108;5.044;2022-07-06T06:06:11;21.40;99.90
48912;DHT22;34722;52.108;5.044;2022-07-06T06:08:40;21.80;99.90
48912;DHT22;34722;52.108;5.044;2022-07-06T06:11:09;22.20;99.90
48912;DHT22;34722;52.108;5.044;2022-07-06T06:13:38;22.90;99.90
48912;DHT22;34722;52.108;5.044;2022-07-06T06:16:07;23.90;99.90
48912;DHT22;34722;52.108;5.044;2022-07-06T06:18:33;24.70;99.90
48912;DHT22;34722;52.108;5.044;2022-07-06T06:21:05;25.40;84.20
48912;DHT22;34722;52.108;5.044;2022-07-06T06:23:31;25.50;48.20
48912;DHT22;34722;52.108;5.044;2022-07-06T06:26:00;26.00;19.80
48912;DHT22;34722;52.108;5.044;2022-07-06T06:28:26;26.00;2.90
48912;DHT22;34722;52.108;5.044;2022-07-06T06:30:52;26.30;1.00
48912;DHT22;34722;52.108;5.044;2022-07-06T06:33:19;26.70;1.00
48912;DHT22;34722;52.108;5.044;2022-07-06T06:35:50;27.10;1.00
48912;DHT22;34722;52.108;5.044;2022-07-06T06:38:17;27.10;1.00
48912;DHT22;34722;52.108;5.044;2022-07-06T19:43:23;19.10;1.00
48912;DHT22;34722;52.108;5.044;2022-07-06T19:45:51;19.10;1.00
48912;DHT22;34722;52.108;5.044;2022-07-06T19:48:20;19.10;1.00
48912;DHT22;34722;52.108;5.044;2022-07-06T19:50:45;19.10;1.00
48912;DHT22;34722;52.108;5.044;2022-07-06T19:53:12;19.10;1.00
48912;DHT22;34722;52.108;5.044;2022-07-06T19:55:39;19.10;1.00
48912;DHT22;34722;52.108;5.044;2022-07-06T19:58:07;19.10;1.00
48912;DHT22;34722;52.108;5.044;2022-07-06T20:00:33;19.10;1.00
48912;DHT22;34722;52.108;5.044;2022-07-06T20:03:02;19.10;1.00
48912;DHT22;34722;52.108;5.044;2022-07-06T20:05:34;19.00;1.00
48912;DHT22;34722;52.108;5.044;2022-07-06T20:08:05;19.00;1.00
48912;DHT22;34722;52.108;5.044;2022-07-06T20:10:38;19.00;1.00
48912;DHT22;34722;52.108;5.044;2022-07-06T20:13:11;19.00;1.00
48912;DHT22;34722;52.108;5.044;2022-07-06T20:15:40;19.00;1.00
48912;DHT22;34722;52.108;5.044;2022-07-06T20:18:06;19.00;1.00
48912;DHT22;34722;52.108;5.044;2022-07-06T20:20:32;18.90;1.00
48912;DHT22;34722;52.108;5.044;2022-07-06T20:22:59;19.00;1.00
48912;DHT22;34722;52.108;5.044;2022-07-06T20:25:26;19.00;7.00
48912;DHT22;34722;52.108;5.044;2022-07-06T20:27:52;18.90;6.00
48912;DHT22;34722;52.108;5.044;2022-07-06T20:30:18;18.80;9.50
48912;DHT22;34722;52.108;5.044;2022-07-06T20:32:44;18.80;12.20
48912;DHT22;34722;52.108;5.044;2022-07-06T20:35:15;18.80;10.70
48912;DHT22;34722;52.108;5.044;2022-07-06T20:37:43;18.80;15.00
48912;DHT22;34722;52.108;5.044;2022-07-06T20:40:13;18.80;17.80
48912;DHT22;34722;52.108;5.044;2022-07-06T20:42:38;18.80;21.40
48912;DHT22;34722;52.108;5.044;2022-07-06T20:45:05;18.70;22.60
48912;DHT22;34722;52.108;5.044;2022-07-06T20:47:30;18.80;34.70
48912;DHT22;34722;52.108;5.044;2022-07-06T20:49:56;18.70;31.60
48912;DHT22;34722;52.108;5.044;2022-07-06T20:52:22;18.60;30.70
48912;DHT22;34722;52.108;5.044;2022-07-06T20:54:47;18.60;35.30
48912;DHT22;34722;52.108;5.044;2022-07-06T20:57:13;18.50;33.70
48912;DHT22;34722;52.108;5.044;2022-07-06T20:59:39;18.40;39.10
48912;DHT22;34722;52.108;5.044;2022-07-06T21:02:05;18.40;41.40
48912;DHT22;34722;52.108;5.044;2022-07-06T21:04:31;18.30;45.20
48912;DHT22;34722;52.108;5.044;2022-07-06T21:07:00;18.30;46.80
48912;DHT22;34722;52.108;5.044;2022-07-06T21:09:26;18.30;49.40
48912;DHT22;34722;52.108;5.044;2022-07-06T21:11:52;18.20;51.00
48912;DHT22;34722;52.108;5.044;2022-07-06T21:16:47;18.10;55.60
48912;DHT22;34722;52.108;5.044;2022-07-06T21:19:13;18.10;54.00
48912;DHT22;34722;52.108;5.044;2022-07-06T21:21:39;18.10;55.30
48912;DHT22;34722;52.108;5.044;2022-07-06T21:24:05;18.10;57.90
48912;DHT22;34722;52.108;5.044;2022-07-06T21:26:31;18.00;59.70
48912;DHT22;34722;52.108;5.044;2022-07-06T21:28:58;18.10;60.20
48912;DHT22;34722;52.108;5.044;2022-07-06T21:31:24;18.10;63.80
48912;DHT22;34722;52.108;5.044;2022-07-06T21:33:50;18.10;59.40
48912;DHT22;34722;52.108;5.044;2022-07-06T21:36:16;18.10;62.00
48912;DHT22;34722;52.108;5.044;2022-07-06T21:38:43;18.10;62.50
48912;DHT22;34722;52.108;5.044;2022-07-06T21:41:09;18.10;59.80
48912;DHT22;34722;52.108;5.044;2022-07-06T21:43:35;18.10;59.80
48912;DHT22;34722;52.108;5.044;2022-07-06T21:46:00;18.10;61.90
48912;DHT22;34722;52.108;5.044;2022-07-06T21:48:26;18.00;65.30
48912;DHT22;34722;52.108;5.044;2022-07-06T21:50:52;17.90;74.60
48912;DHT22;34722;52.108;5.044;2022-07-06T21:53:18;17.90;83.00
48912;DHT22;34722;52.108;5.044;2022-07-06T21:55:43;17.80;86.00
48912;DHT22;34722;52.108;5.044;2022-07-06T21:58:09;17.80;91.90
48912;DHT22;34722;52.108;5.044;2022-07-06T22:00:35;17.80;92.90
48912;DHT22;34722;52.108;5.044;2022-07-06T22:03:01;17.80;96.20
48912;DHT22;34722;52.108;5.044;2022-07-06T22:05:27;17.70;97.50
48912;DHT22;34722;52.108;5.044;2022-07-06T22:07:53;17.70;99.90
48912;DHT22;34722;52.108;5.044;2022-07-06T22:10:19;17.60;99.90
48912;DHT22;34722;52.108;5.044;2022-07-06T22:12:45;17.60;99.90
48912;DHT22;34722;52.108;5.044;2022-07-06T22:15:11;17.50;99.90
48912;DHT22;34722;52.108;5.044;2022-07-06T22:17:38;17.50;99.90
48912;DHT22;34722;52.108;5.044;2022-07-06T22:20:07;17.40;99.90
48912;DHT22;34722;52.108;5.044;2022-07-06T22:22:33;17.40;99.90
48912;DHT22;34722;52.108;5.044;2022-07-06T22:24:59;17.40;99.90
48912;DHT22;34722;52.108;5.044;2022-07-06T22:27:24;17.50;99.90
48912;DHT22;34722;52.108;5.044;2022-07-06T22:29:50;17.50;99.90
48912;DHT22;34722;52.108;5.044;2022-07-06T22:32:18;17.50;99.90
48912;DHT22;34722;52.108;5.044;2022-07-06T22:34:44;17.50;99.90
48912;DHT22;34722;52.108;5.044;2022-07-06T22:37:11;17.50;99.90
48912;DHT22;34722;52.108;5.044;2022-07-06T22:39:37;17.50;99.90
48912;DHT22;34722;52.108;5.044;2022-07-06T22:42:02;17.50;99.90
48912;DHT22;34722;52.108;5.044;2022-07-06T22:44:30;17.60;99.90
48912;DHT22;34722;52.108;5.044;2022-07-06T22:46:55;17.60;99.90
48912;DHT22;34722;52.108;5.044;2022-07-06T22:49:21;17.60;99.90
48912;DHT22;34722;52.108;5.044;2022-07-06T22:51:47;17.70;99.90
48912;DHT22;34722;52.108;5.044;2022-07-06T22:54:13;17.70;99.90
48912;DHT22;34722;52.108;5.044;2022-07-06T22:56:39;17.70;99.90
48912;DHT22;34722;52.108;5.044;2022-07-06T22:59:05;17.70;99.90
48912;DHT22;34722;52.108;5.044;2022-07-06T23:01:32;17.70;99.90
48912;DHT22;34722;52.108;5.044;2022-07-06T23:03:58;17.70;99.90
48912;DHT22;34722;52.108;5.044;2022-07-06T23:06:25;17.70;99.90
48912;DHT22;34722;52.108;5.044;2022-07-06T23:08:52;17.80;99.90
48912;DHT22;34722;52.108;5.044;2022-07-06T23:11:19;17.70;99.90
48912;DHT22;34722;52.108;5.044;2022-07-06T23:13:46;17.80;99.90
48912;DHT22;34722;52.108;5.044;2022-07-06T23:16:12;17.80;99.90
48912;DHT22;34722;52.108;5.044;2022-07-06T23:18:39;17.80;99.90
48912;DHT22;34722;52.108;5.044;2022-07-06T23:21:06;17.80;99.90
48912;DHT22;34722;52.108;5.044;2022-07-06T23:23:33;17.80;99.90
48912;DHT22;34722;52.108;5.044;2022-07-06T23:25:59;17.80;99.90
48912;DHT22;34722;52.108;5.044;2022-07-06T23:28:25;17.80;99.90
48912;DHT22;34722;52.108;5.044;2022-07-06T23:30:51;17.90;99.90
48912;DHT22;34722;52.108;5.044;2022-07-06T23:33:17;17.90;99.90
48912;DHT22;34722;52.108;5.044;2022-07-06T23:35:43;17.90;99.90
48912;DHT22;34722;52.108;5.044;2022-07-06T23:38:12;17.90;99.90
48912;DHT22;34722;52.108;5.044;2022-07-06T23:40:39;17.90;99.90
48912;DHT22;34722;52.108;5.044;2022-07-06T23:43:05;17.90;99.90
48912;DHT22;34722;52.108;5.044;2022-07-06T23:45:30;17.90;99.90
48912;DHT22;34722;52.108;5.044;2022-07-06T23:47:56;17.90;99.90
48912;DHT22;34722;52.108;5.044;2022-07-06T23:50:23;18.00;99.90
48912;DHT22;34722;52.108;5.044;2022-07-06T23:52:49;17.90;99.90
48912;DHT22;34722;52.108;5.044;2022-07-06T23:55:15;17.90;99.90
48912;DHT22;34722;52.108;5.044;2022-07-06T23:57:41;18.00;99.90
